createdAt,value
2023-06-03T00:00:26.170Z,9.72
2023-06-03T00:05:48.981Z,9.75
2023-06-03T00:10:51.914Z,9.79
2023-06-03T00:15:54.819Z,9.85
2023-06-03T00:20:57.737Z,9.91
2023-06-03T00:26:00.620Z,9.96
2023-06-03T00:31:03.825Z,9.98
2023-06-03T00:36:07.464Z,10.00
2023-06-03T00:41:10.336Z,10.00
2023-06-03T00:46:14.305Z,9.97
2023-06-03T00:51:17.672Z,9.96
2023-06-03T00:56:20.734Z,9.96
2023-06-03T01:01:25.705Z,9.96
2023-06-03T01:06:35.961Z,9.93
2023-06-03T01:11:47.758Z,9.85
2023-06-03T01:16:52.130Z,9.82
2023-06-03T01:22:01.632Z,9.76
2023-06-03T01:27:04.829Z,9.68
2023-06-03T01:32:12.878Z,9.60
2023-06-03T01:37:15.741Z,9.53
2023-06-03T01:42:18.618Z,9.44
2023-06-03T01:47:21.538Z,9.33
2023-06-03T01:52:24.469Z,9.26
2023-06-03T01:57:28.305Z,9.19
2023-06-03T02:02:31.444Z,9.18
2023-06-03T02:07:34.416Z,9.19
2023-06-03T02:12:37.328Z,9.20
2023-06-03T02:17:41.845Z,9.23
2023-06-03T02:22:44.865Z,9.25
2023-06-03T02:27:47.675Z,9.24
2023-06-03T02:32:50.547Z,9.26
2023-06-03T02:37:53.505Z,9.29
2023-06-03T02:42:56.361Z,9.32
2023-06-03T02:47:59.211Z,9.34
2023-06-03T02:53:02.681Z,9.27
2023-06-03T02:58:05.829Z,9.19
2023-06-03T03:03:08.722Z,9.22
2023-06-03T03:08:11.693Z,9.27
2023-06-03T03:13:14.547Z,9.30
2023-06-03T03:18:17.577Z,9.35
2023-06-03T03:23:20.618Z,9.82
2023-06-03T03:28:23.545Z,11.41
2023-06-03T03:33:26.534Z,13.14
2023-06-03T03:38:29.408Z,14.43
2023-06-03T03:43:32.416Z,14.86
2023-06-03T03:48:35.275Z,15.79
2023-06-03T03:53:38.197Z,16.64
2023-06-03T03:58:42.502Z,17.22
2023-06-03T04:03:47.311Z,18.60
2023-06-03T04:08:52.704Z,19.71
2023-06-03T04:13:57.041Z,19.79
2023-06-03T04:19:00.047Z,20.39
2023-06-03T04:24:06.239Z,20.70
2023-06-03T04:29:10.799Z,20.66
2023-06-03T04:34:13.711Z,21.23
2023-06-03T04:39:18.867Z,21.80
2023-06-03T04:44:22.369Z,21.63
2023-06-03T04:49:25.235Z,20.72
2023-06-03T04:54:28.078Z,19.81
2023-06-03T04:59:31.025Z,19.13
2023-06-03T05:04:35.434Z,18.45
2023-06-03T05:09:38.542Z,17.94
2023-06-03T05:14:41.471Z,17.62
2023-06-03T05:19:44.304Z,17.32
2023-06-03T05:24:47.143Z,17.07
2023-06-03T05:29:49.940Z,16.75
2023-06-03T05:34:55.179Z,16.52
2023-06-03T05:39:58.025Z,16.24
2023-06-03T05:45:00.908Z,16.00
2023-06-03T05:50:04.279Z,15.85
2023-06-03T05:55:07.847Z,15.80
2023-06-03T06:00:11.329Z,15.85
2023-06-03T06:05:14.459Z,15.92
2023-06-03T06:10:17.282Z,15.96
2023-06-03T06:15:20.157Z,16.08
2023-06-03T06:20:23.093Z,16.21
2023-06-03T06:25:26.026Z,16.33
2023-06-03T06:30:28.886Z,16.36
2023-06-03T06:35:31.767Z,16.36
2023-06-03T06:40:35.773Z,16.32
2023-06-03T06:45:38.901Z,16.30
2023-06-03T06:50:57.644Z,16.26
2023-06-03T06:56:08.984Z,16.19
2023-06-03T07:01:11.999Z,16.08
2023-06-03T07:06:15.235Z,16.13
2023-06-03T07:11:18.154Z,16.13
2023-06-03T07:16:22.393Z,15.95
2023-06-03T07:21:26.653Z,15.72
2023-06-03T07:26:33.059Z,15.48
2023-06-03T07:36:44.845Z,15.17
2023-06-03T07:41:52.026Z,15.15
2023-06-03T07:46:59.440Z,15.21
2023-06-03T07:52:02.479Z,15.29
2023-06-03T07:57:06.697Z,15.46
2023-06-03T08:02:13.097Z,15.64
2023-06-03T08:07:17.472Z,15.74
2023-06-03T08:12:31.341Z,15.76
2023-06-03T08:17:42.074Z,15.79
2023-06-03T08:22:45.873Z,15.84
2023-06-03T08:27:49.595Z,15.91
2023-06-03T08:32:52.624Z,15.90
2023-06-03T08:37:56.187Z,15.92
2023-06-03T08:43:03.488Z,15.99
2023-06-03T08:48:33.469Z,16.08
2023-06-03T08:53:53.295Z,16.13
2023-06-03T08:59:02.791Z,16.14
2023-06-03T09:04:06.348Z,16.16
2023-06-03T09:09:10.571Z,16.21
2023-06-03T09:14:14.482Z,16.32
2023-06-03T09:19:18.721Z,16.43
2023-06-03T09:24:21.738Z,16.49
2023-06-03T09:29:25.865Z,16.48
2023-06-03T09:34:30.116Z,16.42
2023-06-03T09:39:34.861Z,16.40
2023-06-03T09:44:56.979Z,16.41
2023-06-03T09:50:13.362Z,16.35
2023-06-03T09:55:16.819Z,16.23
2023-06-03T10:00:19.948Z,16.13
2023-06-03T10:05:29.998Z,16.09
2023-06-03T10:10:37.063Z,16.03
2023-06-03T10:15:41.329Z,16.07
2023-06-03T10:20:44.854Z,16.08
2023-06-03T10:25:53.978Z,16.08
2023-06-03T10:30:59.226Z,15.98
2023-06-03T10:36:04.906Z,15.95
2023-06-03T10:41:10.758Z,15.96
2023-06-03T10:46:14.350Z,16.00
2023-06-03T10:51:51.790Z,16.06
2023-06-03T10:57:10.145Z,16.10
2023-06-03T11:02:14.416Z,16.09
2023-06-03T11:07:33.146Z,16.13
2023-06-03T11:12:50.679Z,16.20
2023-06-03T11:18:31.203Z,16.27
2023-06-03T11:23:47.032Z,16.34
2023-06-03T11:28:50.201Z,16.41
2023-06-03T11:34:27.545Z,16.44
2023-06-03T11:40:07.372Z,16.49
2023-06-03T11:45:23.018Z,16.54
2023-06-03T11:50:33.586Z,16.62
2023-06-03T11:55:36.848Z,16.70
2023-06-03T12:00:39.964Z,16.73
2023-06-03T12:06:03.212Z,16.75
2023-06-03T12:11:06.491Z,16.78
2023-06-03T12:16:09.732Z,16.82
2023-06-03T12:21:23.417Z,16.89
2023-06-03T12:26:27.091Z,16.93
2023-06-03T12:31:30.280Z,16.95
2023-06-03T12:36:51.205Z,16.97
2023-06-03T12:41:55.783Z,17.00
2023-06-03T12:47:03.819Z,17.05
2023-06-03T12:52:37.760Z,17.13
2023-06-03T12:57:43.484Z,17.13
2023-06-03T13:02:49.065Z,17.13
2023-06-03T13:07:52.422Z,17.12
2023-06-03T13:12:55.422Z,17.17
2023-06-03T13:17:58.544Z,17.19
2023-06-03T13:23:01.581Z,17.20
2023-06-03T13:28:04.566Z,17.24
2023-06-03T13:33:07.973Z,17.24
2023-06-03T13:38:15.234Z,17.21
2023-06-03T13:43:18.255Z,17.21
2023-06-03T13:48:21.274Z,17.20
2023-06-03T13:53:24.250Z,17.21
2023-06-03T13:58:27.294Z,17.24
2023-06-03T14:03:30.270Z,17.30
2023-06-03T14:08:34.675Z,17.35
2023-06-03T14:13:37.700Z,17.35
2023-06-03T14:18:40.708Z,17.30
2023-06-03T14:23:43.690Z,17.27
2023-06-03T14:28:47.219Z,17.28
2023-06-03T14:33:50.472Z,17.32
2023-06-03T14:38:53.540Z,17.35
2023-06-03T14:43:59.804Z,17.40
2023-06-03T14:49:02.854Z,17.44
2023-06-03T14:54:06.773Z,17.48
2023-06-03T14:59:09.782Z,17.43
2023-06-03T15:04:14.903Z,17.40
2023-06-03T15:09:18.152Z,17.38
2023-06-03T15:14:21.058Z,17.39
2023-06-03T15:19:24.007Z,17.38
2023-06-03T15:24:27.161Z,17.33
2023-06-03T15:29:30.264Z,17.31
2023-06-03T15:34:33.402Z,17.32
2023-06-03T15:39:36.456Z,17.31
2023-06-03T15:44:39.332Z,17.33
2023-06-03T15:49:42.337Z,17.33
2023-06-03T15:54:45.844Z,17.30
2023-06-03T15:59:48.842Z,17.28
2023-06-03T16:04:51.894Z,17.26
2023-06-03T16:09:54.881Z,17.22
2023-06-03T16:14:58.106Z,17.16
2023-06-03T16:20:01.502Z,17.08
2023-06-03T16:25:05.823Z,17.01
2023-06-03T16:30:10.202Z,16.95
2023-06-03T16:35:13.246Z,16.90
2023-06-03T16:40:16.295Z,16.85
2023-06-03T16:45:19.322Z,16.78
2023-06-03T16:50:22.304Z,16.73
2023-06-03T16:55:25.382Z,16.68
2023-06-03T17:00:28.424Z,16.61
2023-06-03T17:05:32.519Z,16.56
2023-06-03T17:10:36.731Z,16.51
2023-06-03T17:15:39.723Z,16.46
2023-06-03T17:20:42.804Z,16.41
2023-06-03T17:25:46.584Z,16.38
2023-06-03T17:30:49.888Z,16.33
2023-06-03T17:35:52.798Z,16.30
2023-06-03T17:40:57.659Z,16.26
2023-06-03T17:46:01.096Z,16.21
2023-06-03T17:51:04.690Z,16.15
2023-06-03T17:56:08.318Z,16.08
2023-06-03T18:01:11.839Z,16.01
2023-06-03T18:06:14.844Z,15.95
2023-06-03T18:11:17.886Z,15.88
2023-06-03T18:16:21.025Z,15.81
2023-06-03T18:21:24.074Z,15.72
2023-06-03T18:26:29.072Z,15.63
2023-06-03T18:31:32.451Z,15.53
2023-06-03T18:36:35.458Z,15.42
2023-06-03T18:41:38.513Z,15.32
2023-06-03T18:46:41.583Z,15.22
2023-06-03T18:51:44.585Z,15.13
2023-06-03T18:56:47.597Z,15.02
2023-06-03T19:01:51.373Z,14.93
2023-06-03T19:06:54.581Z,14.85
2023-06-03T19:11:57.597Z,14.76
2023-06-03T19:17:01.018Z,14.69
2023-06-03T19:22:04.089Z,14.61
2023-06-03T19:27:07.600Z,14.53
2023-06-03T19:32:10.572Z,14.41
2023-06-03T19:37:13.596Z,14.27
2023-06-03T19:42:16.642Z,14.15
2023-06-03T19:47:19.598Z,14.04
2023-06-03T19:52:22.613Z,13.95
2023-06-03T19:57:25.697Z,13.87
2023-06-03T20:02:28.741Z,13.83
2023-06-03T20:07:35.515Z,13.77
2023-06-03T20:12:38.501Z,13.70
2023-06-03T20:17:41.593Z,13.61
2023-06-03T20:22:44.920Z,13.53
2023-06-03T20:27:50.497Z,13.46
2023-06-03T20:32:58.261Z,13.38
2023-06-03T20:38:04.571Z,13.28
2023-06-03T20:43:07.609Z,13.19
2023-06-03T20:48:11.126Z,13.10
2023-06-03T20:53:14.133Z,13.02
2023-06-03T20:58:17.461Z,12.96
2023-06-03T21:03:20.812Z,12.89
2023-06-03T21:08:23.804Z,12.82
2023-06-03T21:13:27.545Z,12.77
2023-06-03T21:18:30.615Z,12.68
2023-06-03T21:23:33.623Z,12.61
2023-06-03T21:28:36.825Z,12.53
2023-06-03T21:33:39.891Z,12.47
2023-06-03T21:38:42.892Z,12.40
2023-06-03T21:43:45.895Z,12.35
2023-06-03T21:48:49.232Z,12.28
2023-06-03T21:53:53.667Z,12.21
2023-06-03T21:58:56.655Z,12.15
2023-06-03T22:03:59.809Z,12.08
2023-06-03T22:09:03.049Z,12.02
2023-06-03T22:14:06.359Z,11.96
2023-06-03T22:19:09.473Z,11.91
2023-06-03T22:24:12.668Z,11.86
2023-06-03T22:29:15.721Z,11.80
2023-06-03T22:34:18.696Z,11.75
2023-06-03T22:39:21.752Z,11.67
2023-06-03T22:44:24.946Z,11.61
2023-06-03T22:49:27.930Z,11.53
2023-06-03T22:54:31.044Z,11.47
2023-06-03T22:59:34.053Z,11.41
2023-06-03T23:04:37.058Z,11.36
2023-06-03T23:09:40.193Z,11.31
2023-06-03T23:14:43.202Z,11.26
2023-06-03T23:19:46.230Z,11.20
2023-06-03T23:24:49.259Z,11.16
2023-06-03T23:29:52.252Z,12.01
2023-06-03T23:34:55.235Z,14.83
2023-06-03T23:39:58.548Z,15.01
2023-06-03T23:45:02.767Z,13.77
2023-06-03T23:50:06.943Z,13.11
2023-06-03T23:55:10.191Z,12.68
